sensor_id;sensor_type;location;lat;lon;timestamp;P1;durP1;ratioP1;P2;durP2;ratioP2
43756;SDS011;45574;41.864;12.462;2022-09-11T00:00:42;26.55;;;4.65;;
43756;SDS011;45574;41.864;12.462;2022-09-11T00:03:09;17.40;;;3.63;;
43756;SDS011;45574;41.864;12.462;2022-09-11T00:05:36;22.83;;;4.65;;
43756;SDS011;45574;41.864;12.462;2022-09-11T00:08:05;22.35;;;4.10;;
43756;SDS011;45574;41.864;12.462;2022-09-11T00:10:33;24.38;;;4.28;;
43756;SDS011;45574;41.864;12.462;2022-09-11T00:13:02;20.67;;;3.88;;
43756;SDS011;45574;41.864;12.462;2022-09-11T00:15:29;21.08;;;4.13;;
43756;SDS011;45574;41.864;12.462;2022-09-11T00:17:55;21.52;;;4.05;;
43756;SDS011;45574;41.864;12.462;2022-09-11T00:20:21;19.98;;;4.03;;
43756;SDS011;45574;41.864;12.462;2022-09-11T00:22:47;29.13;;;5.00;;
43756;SDS011;45574;41.864;12.462;2022-09-11T00:25:14;23.40;;;4.75;;
43756;SDS011;45574;41.864;12.462;2022-09-11T00:27:40;26.27;;;4.65;;
43756;SDS011;45574;41.864;12.462;2022-09-11T00:30:06;23.63;;;4.25;;
43756;SDS011;45574;41.864;12.462;2022-09-11T00:32:32;18.10;;;4.50;;
43756;SDS011;45574;41.864;12.462;2022-09-11T00:34:58;26.20;;;4.95;;
43756;SDS011;45574;41.864;12.462;2022-09-11T00:37:25;22.23;;;4.70;;
43756;SDS011;45574;41.864;12.462;2022-09-11T00:39:51;17.60;;;3.85;;
43756;SDS011;45574;41.864;12.462;2022-09-11T00:42:19;18.52;;;4.22;;
43756;SDS011;45574;41.864;12.462;2022-09-11T00:47:15;20.05;;;4.22;;
43756;SDS011;45574;41.864;12.462;2022-09-11T00:52:34;18.70;;;3.70;;
43756;SDS011;45574;41.864;12.462;2022-09-11T00:57:34;17.15;;;3.50;;
43756;SDS011;45574;41.864;12.462;2022-09-11T01:00:05;19.95;;;3.78;;
43756;SDS011;45574;41.864;12.462;2022-09-11T01:02:33;18.17;;;3.67;;
43756;SDS011;45574;41.864;12.462;2022-09-11T01:05:02;20.08;;;3.88;;
43756;SDS011;45574;41.864;12.462;2022-09-11T01:07:29;18.98;;;3.72;;
43756;SDS011;45574;41.864;12.462;2022-09-11T01:09:56;22.83;;;3.90;;
43756;SDS011;45574;41.864;12.462;2022-09-11T01:12:32;25.80;;;4.53;;
43756;SDS011;45574;41.864;12.462;2022-09-11T01:15:24;22.30;;;4.20;;
43756;SDS011;45574;41.864;12.462;2022-09-11T01:18:07;19.77;;;4.43;;
43756;SDS011;45574;41.864;12.462;2022-09-11T01:31:23;25.63;;;4.00;;
43756;SDS011;45574;41.864;12.462;2022-09-11T01:34:05;18.42;;;3.28;;
43756;SDS011;45574;41.864;12.462;2022-09-11T01:36:40;23.00;;;3.83;;
43756;SDS011;45574;41.864;12.462;2022-09-11T01:39:16;20.92;;;4.40;;
43756;SDS011;45574;41.864;12.462;2022-09-11T01:41:50;18.40;;;3.58;;
43756;SDS011;45574;41.864;12.462;2022-09-11T01:44:36;19.45;;;4.18;;
43756;SDS011;45574;41.864;12.462;2022-09-11T01:47:09;23.02;;;3.70;;
43756;SDS011;45574;41.864;12.462;2022-09-11T01:49:44;23.95;;;4.25;;
43756;SDS011;45574;41.864;12.462;2022-09-11T01:52:49;25.65;;;3.50;;
43756;SDS011;45574;41.864;12.462;2022-09-11T01:55:23;15.15;;;3.03;;
43756;SDS011;45574;41.864;12.462;2022-09-11T01:57:59;16.33;;;3.95;;
43756;SDS011;45574;41.864;12.462;2022-09-11T02:00:32;21.55;;;3.92;;
43756;SDS011;45574;41.864;12.462;2022-09-11T02:05:38;14.68;;;3.55;;
43756;SDS011;45574;41.864;12.462;2022-09-11T02:11:27;15.63;;;3.33;;
43756;SDS011;45574;41.864;12.462;2022-09-11T02:13:59;26.00;;;4.28;;
43756;SDS011;45574;41.864;12.462;2022-09-11T02:16:56;19.23;;;3.60;;
43756;SDS011;45574;41.864;12.462;2022-09-11T02:19:30;17.33;;;3.85;;
43756;SDS011;45574;41.864;12.462;2022-09-11T02:21:57;14.13;;;3.17;;
43756;SDS011;45574;41.864;12.462;2022-09-11T02:24:23;21.27;;;3.40;;
43756;SDS011;45574;41.864;12.462;2022-09-11T02:27:01;19.52;;;4.13;;
43756;SDS011;45574;41.864;12.462;2022-09-11T02:29:31;27.45;;;4.13;;
43756;SDS011;45574;41.864;12.462;2022-09-11T02:31:59;20.13;;;3.72;;
43756;SDS011;45574;41.864;12.462;2022-09-11T02:34:27;20.90;;;4.43;;
43756;SDS011;45574;41.864;12.462;2022-09-11T02:48:48;18.55;;;3.55;;
43756;SDS011;45574;41.864;12.462;2022-09-11T02:56:42;18.50;;;3.63;;
43756;SDS011;45574;41.864;12.462;2022-09-11T02:59:31;21.10;;;4.03;;
43756;SDS011;45574;41.864;12.462;2022-09-11T03:02:02;21.13;;;4.10;;
43756;SDS011;45574;41.864;12.462;2022-09-11T03:04:29;18.08;;;3.83;;
43756;SDS011;45574;41.864;12.462;2022-09-11T03:06:56;17.02;;;4.18;;
43756;SDS011;45574;41.864;12.462;2022-09-11T03:09:23;18.80;;;4.47;;
43756;SDS011;45574;41.864;12.462;2022-09-11T03:11:53;21.17;;;4.63;;
43756;SDS011;45574;41.864;12.462;2022-09-11T03:14:20;16.63;;;4.35;;
43756;SDS011;45574;41.864;12.462;2022-09-11T03:16:46;22.60;;;4.50;;
43756;SDS011;45574;41.864;12.462;2022-09-11T03:19:16;15.50;;;3.70;;
43756;SDS011;45574;41.864;12.462;2022-09-11T03:21:42;12.57;;;4.18;;
43756;SDS011;45574;41.864;12.462;2022-09-11T03:24:09;21.25;;;4.15;;
43756;SDS011;45574;41.864;12.462;2022-09-11T03:26:36;11.25;;;3.67;;
43756;SDS011;45574;41.864;12.462;2022-09-11T03:29:02;14.38;;;3.95;;
43756;SDS011;45574;41.864;12.462;2022-09-11T03:31:30;22.17;;;4.18;;
43756;SDS011;45574;41.864;12.462;2022-09-11T03:33:56;20.88;;;4.47;;
43756;SDS011;45574;41.864;12.462;2022-09-11T03:36:23;15.32;;;4.03;;
43756;SDS011;45574;41.864;12.462;2022-09-11T03:38:49;20.88;;;4.30;;
43756;SDS011;45574;41.864;12.462;2022-09-11T03:41:15;18.10;;;4.38;;
43756;SDS011;45574;41.864;12.462;2022-09-11T03:43:42;16.02;;;4.53;;
43756;SDS011;45574;41.864;12.462;2022-09-11T03:46:08;18.20;;;4.20;;
43756;SDS011;45574;41.864;12.462;2022-09-11T03:48:36;14.68;;;3.92;;
43756;SDS011;45574;41.864;12.462;2022-09-11T03:51:02;15.23;;;4.10;;
43756;SDS011;45574;41.864;12.462;2022-09-11T03:53:30;16.33;;;4.00;;
43756;SDS011;45574;41.864;12.462;2022-09-11T03:55:58;14.07;;;3.53;;
43756;SDS011;45574;41.864;12.462;2022-09-11T03:58:26;12.38;;;3.85;;
43756;SDS011;45574;41.864;12.462;2022-09-11T04:00:52;18.05;;;4.03;;
43756;SDS011;45574;41.864;12.462;2022-09-11T04:03:18;16.00;;;3.65;;
43756;SDS011;45574;41.864;12.462;2022-09-11T04:05:54;11.63;;;3.17;;
43756;SDS011;45574;41.864;12.462;2022-09-11T04:08:24;11.98;;;3.35;;
43756;SDS011;45574;41.864;12.462;2022-09-11T04:10:58;11.55;;;3.33;;
43756;SDS011;45574;41.864;12.462;2022-09-11T04:13:31;15.55;;;3.20;;
43756;SDS011;45574;41.864;12.462;2022-09-11T04:16:05;10.85;;;3.17;;
43756;SDS011;45574;41.864;12.462;2022-09-11T04:18:36;16.13;;;3.47;;
43756;SDS011;45574;41.864;12.462;2022-09-11T04:21:04;14.23;;;2.95;;
43756;SDS011;45574;41.864;12.462;2022-09-11T04:23:31;13.25;;;3.00;;
43756;SDS011;45574;41.864;12.462;2022-09-11T04:25:58;18.17;;;3.50;;
43756;SDS011;45574;41.864;12.462;2022-09-11T04:28:26;13.55;;;3.30;;
43756;SDS011;45574;41.864;12.462;2022-09-11T04:31:11;15.93;;;3.53;;
43756;SDS011;45574;41.864;12.462;2022-09-11T04:33:41;15.85;;;3.65;;
43756;SDS011;45574;41.864;12.462;2022-09-11T04:36:08;13.55;;;2.95;;
43756;SDS011;45574;41.864;12.462;2022-09-11T04:38:37;13.95;;;2.70;;
43756;SDS011;45574;41.864;12.462;2022-09-11T04:41:07;8.18;;;2.97;;
43756;SDS011;45574;41.864;12.462;2022-09-11T04:43:34;12.50;;;2.95;;
43756;SDS011;45574;41.864;12.462;2022-09-11T04:46:08;16.17;;;3.28;;
43756;SDS011;45574;41.864;12.462;2022-09-11T04:48:41;16.55;;;3.83;;
43756;SDS011;45574;41.864;12.462;2022-09-11T04:51:08;16.10;;;3.17;;
43756;SDS011;45574;41.864;12.462;2022-09-11T04:53:35;14.88;;;3.25;;
43756;SDS011;45574;41.864;12.462;2022-09-11T04:56:05;9.40;;;2.47;;
43756;SDS011;45574;41.864;12.462;2022-09-11T04:58:41;12.10;;;2.78;;
43756;SDS011;45574;41.864;12.462;2022-09-11T05:01:14;12.65;;;3.33;;
43756;SDS011;45574;41.864;12.462;2022-09-11T05:03:43;16.20;;;3.17;;
43756;SDS011;45574;41.864;12.462;2022-09-11T05:06:10;19.08;;;3.30;;
43756;SDS011;45574;41.864;12.462;2022-09-11T05:08:43;14.45;;;3.17;;
43756;SDS011;45574;41.864;12.462;2022-09-11T05:11:17;13.15;;;2.95;;
43756;SDS011;45574;41.864;12.462;2022-09-11T05:13:45;18.55;;;3.45;;
43756;SDS011;45574;41.864;12.462;2022-09-11T05:16:14;10.63;;;2.90;;
43756;SDS011;45574;41.864;12.462;2022-09-11T05:18:42;15.27;;;3.25;;
43756;SDS011;45574;41.864;12.462;2022-09-11T05:23:40;14.40;;;2.80;;
43756;SDS011;45574;41.864;12.462;2022-09-11T05:26:12;15.57;;;3.10;;
43756;SDS011;45574;41.864;12.462;2022-09-11T05:28:40;10.57;;;3.42;;
43756;SDS011;45574;41.864;12.462;2022-09-11T05:31:24;14.25;;;2.70;;
43756;SDS011;45574;41.864;12.462;2022-09-11T05:33:52;9.25;;;2.55;;
43756;SDS011;45574;41.864;12.462;2022-09-11T05:36:25;11.65;;;2.97;;
43756;SDS011;45574;41.864;12.462;2022-09-11T05:38:52;13.05;;;3.08;;
43756;SDS011;45574;41.864;12.462;2022-09-11T05:41:19;12.85;;;3.65;;
43756;SDS011;45574;41.864;12.462;2022-09-11T05:43:46;14.70;;;3.55;;
43756;SDS011;45574;41.864;12.462;2022-09-11T05:46:14;14.55;;;3.00;;
43756;SDS011;45574;41.864;12.462;2022-09-11T05:48:44;13.52;;;3.25;;
43756;SDS011;45574;41.864;12.462;2022-09-11T05:51:12;15.10;;;3.05;;
43756;SDS011;45574;41.864;12.462;2022-09-11T05:53:47;16.42;;;3.42;;
43756;SDS011;45574;41.864;12.462;2022-09-11T05:56:17;8.82;;;2.70;;
43756;SDS011;45574;41.864;12.462;2022-09-11T05:58:46;14.77;;;3.05;;
43756;SDS011;45574;41.864;12.462;2022-09-11T06:01:15;15.85;;;3.38;;
43756;SDS011;45574;41.864;12.462;2022-09-11T06:03:46;14.75;;;2.90;;
43756;SDS011;45574;41.864;12.462;2022-09-11T06:06:15;12.32;;;3.10;;
43756;SDS011;45574;41.864;12.462;2022-09-11T06:08:43;9.38;;;2.42;;
43756;SDS011;45574;41.864;12.462;2022-09-11T06:11:11;10.52;;;2.50;;
43756;SDS011;45574;41.864;12.462;2022-09-11T06:13:39;9.70;;;2.40;;
43756;SDS011;45574;41.864;12.462;2022-09-11T06:16:14;11.10;;;2.80;;
43756;SDS011;45574;41.864;12.462;2022-09-11T06:18:45;10.32;;;2.50;;
43756;SDS011;45574;41.864;12.462;2022-09-11T06:21:16;19.77;;;3.10;;
43756;SDS011;45574;41.864;12.462;2022-09-11T06:23:58;13.98;;;2.40;;
43756;SDS011;45574;41.864;12.462;2022-09-11T06:26:25;9.05;;;2.30;;
43756;SDS011;45574;41.864;12.462;2022-09-11T06:28:52;10.38;;;2.75;;
43756;SDS011;45574;41.864;12.462;2022-09-11T06:31:20;7.88;;;2.35;;
43756;SDS011;45574;41.864;12.462;2022-09-11T06:33:51;11.98;;;3.25;;
43756;SDS011;45574;41.864;12.462;2022-09-11T06:36:18;16.08;;;3.92;;
43756;SDS011;45574;41.864;12.462;2022-09-11T06:38:55;10.85;;;3.03;;
43756;SDS011;45574;41.864;12.462;2022-09-11T06:41:25;8.55;;;2.60;;
43756;SDS011;45574;41.864;12.462;2022-09-11T06:43:56;16.63;;;2.80;;
43756;SDS011;45574;41.864;12.462;2022-09-11T06:46:24;10.90;;;2.45;;
43756;SDS011;45574;41.864;12.462;2022-09-11T06:48:54;7.93;;;2.40;;
43756;SDS011;45574;41.864;12.462;2022-09-11T06:51:24;8.20;;;2.15;;
43756;SDS011;45574;41.864;12.462;2022-09-11T06:53:56;9.80;;;2.42;;
43756;SDS011;45574;41.864;12.462;2022-09-11T06:56:27;8.77;;;2.20;;
43756;SDS011;45574;41.864;12.462;2022-09-11T06:58:58;7.45;;;2.40;;
43756;SDS011;45574;41.864;12.462;2022-09-11T07:01:25;8.50;;;2.47;;
43756;SDS011;45574;41.864;12.462;2022-09-11T07:03:59;9.15;;;2.22;;
43756;SDS011;45574;41.864;12.462;2022-09-11T07:06:28;9.60;;;2.50;;
43756;SDS011;45574;41.864;12.462;2022-09-11T07:09:00;12.77;;;2.42;;
43756;SDS011;45574;41.864;12.462;2022-09-11T07:11:36;10.40;;;2.47;;
43756;SDS011;45574;41.864;12.462;2022-09-11T07:14:03;12.48;;;2.95;;
43756;SDS011;45574;41.864;12.462;2022-09-11T07:16:35;7.32;;;2.03;;
43756;SDS011;45574;41.864;12.462;2022-09-11T07:19:06;8.77;;;2.45;;
43756;SDS011;45574;41.864;12.462;2022-09-11T07:21:35;9.50;;;2.83;;
43756;SDS011;45574;41.864;12.462;2022-09-11T07:24:03;7.45;;;2.67;;
43756;SDS011;45574;41.864;12.462;2022-09-11T07:31:33;10.35;;;2.15;;
43756;SDS011;45574;41.864;12.462;2022-09-11T07:33:59;12.38;;;2.55;;
43756;SDS011;45574;41.864;12.462;2022-09-11T07:36:28;7.40;;;2.42;;
43756;SDS011;45574;41.864;12.462;2022-09-11T07:38:57;9.20;;;2.33;;
43756;SDS011;45574;41.864;12.462;2022-09-11T07:41:30;10.40;;;2.80;;
43756;SDS011;45574;41.864;12.462;2022-09-11T07:44:01;8.20;;;2.65;;
43756;SDS011;45574;41.864;12.462;2022-09-11T07:46:30;7.95;;;2.42;;
43756;SDS011;45574;41.864;12.462;2022-09-11T07:49:01;9.60;;;2.47;;
43756;SDS011;45574;41.864;12.462;2022-09-11T07:51:28;7.57;;;2.40;;
43756;SDS011;45574;41.864;12.462;2022-09-11T07:53:58;8.10;;;2.28;;
43756;SDS011;45574;41.864;12.462;2022-09-11T07:56:25;11.35;;;2.15;;
43756;SDS011;45574;41.864;12.462;2022-09-11T07:58:53;8.98;;;2.22;;
43756;SDS011;45574;41.864;12.462;2022-09-11T08:01:21;10.00;;;2.55;;
43756;SDS011;45574;41.864;12.462;2022-09-11T08:03:56;13.18;;;2.70;;
43756;SDS011;45574;41.864;12.462;2022-09-11T08:06:31;15.68;;;2.92;;
43756;SDS011;45574;41.864;12.462;2022-09-11T08:09:12;10.27;;;2.70;;
43756;SDS011;45574;41.864;12.462;2022-09-11T08:11:44;10.63;;;2.50;;
43756;SDS011;45574;41.864;12.462;2022-09-11T08:14:14;9.52;;;2.42;;
43756;SDS011;45574;41.864;12.462;2022-09-11T08:16:42;11.50;;;2.10;;
43756;SDS011;45574;41.864;12.462;2022-09-11T08:19:14;12.30;;;2.50;;
43756;SDS011;45574;41.864;12.462;2022-09-11T08:21:43;13.52;;;2.50;;
43756;SDS011;45574;41.864;12.462;2022-09-11T08:24:11;10.15;;;2.20;;
43756;SDS011;45574;41.864;12.462;2022-09-11T08:26:39;13.05;;;2.08;;
43756;SDS011;45574;41.864;12.462;2022-09-11T08:29:05;11.27;;;2.28;;
43756;SDS011;45574;41.864;12.462;2022-09-11T08:31:32;13.10;;;2.78;;
43756;SDS011;45574;41.864;12.462;2022-09-11T08:34:00;10.70;;;2.30;;
43756;SDS011;45574;41.864;12.462;2022-09-11T08:36:27;9.70;;;2.70;;
43756;SDS011;45574;41.864;12.462;2022-09-11T08:38:54;12.48;;;2.55;;
43756;SDS011;45574;41.864;12.462;2022-09-11T08:46:35;10.00;;;2.65;;
43756;SDS011;45574;41.864;12.462;2022-09-11T08:51:49;13.13;;;2.88;;
43756;SDS011;45574;41.864;12.462;2022-09-11T08:54:23;13.02;;;2.33;;
43756;SDS011;45574;41.864;12.462;2022-09-11T09:24:48;4.90;;;1.95;;
43756;SDS011;45574;41.864;12.462;2022-09-11T09:27:20;8.90;;;2.10;;
43756;SDS011;45574;41.864;12.462;2022-09-11T09:29:51;6.88;;;2.10;;
43756;SDS011;45574;41.864;12.462;2022-09-11T09:32:22;8.20;;;2.20;;
43756;SDS011;45574;41.864;12.462;2022-09-11T09:35:18;10.77;;;2.78;;
43756;SDS011;45574;41.864;12.462;2022-09-11T09:37:58;7.93;;;2.27;;
43756;SDS011;45574;41.864;12.462;2022-09-11T09:40:24;7.65;;;2.03;;
43756;SDS011;45574;41.864;12.462;2022-09-11T09:48:07;8.63;;;2.38;;
43756;SDS011;45574;41.864;12.462;2022-09-11T09:50:39;8.68;;;2.13;;
43756;SDS011;45574;41.864;12.462;2022-09-11T09:55:52;9.02;;;2.70;;
43756;SDS011;45574;41.864;12.462;2022-09-11T09:58:21;7.65;;;2.30;;
43756;SDS011;45574;41.864;12.462;2022-09-11T10:00:50;7.20;;;1.98;;
43756;SDS011;45574;41.864;12.462;2022-09-11T10:03:17;8.05;;;2.10;;
43756;SDS011;45574;41.864;12.462;2022-09-11T10:05:47;7.28;;;2.33;;
43756;SDS011;45574;41.864;12.462;2022-09-11T10:11:01;7.47;;;2.50;;
43756;SDS011;45574;41.864;12.462;2022-09-11T10:13:36;6.90;;;1.75;;
43756;SDS011;45574;41.864;12.462;2022-09-11T10:16:19;7.72;;;2.40;;
43756;SDS011;45574;41.864;12.462;2022-09-11T10:18:47;7.88;;;2.17;;
43756;SDS011;45574;41.864;12.462;2022-09-11T10:21:20;4.90;;;2.00;;
43756;SDS011;45574;41.864;12.462;2022-09-11T10:29:11;6.82;;;2.03;;
43756;SDS011;45574;41.864;12.462;2022-09-11T10:31:50;3.88;;;1.77;;
43756;SDS011;45574;41.864;12.462;2022-09-11T10:34:24;5.97;;;1.55;;
43756;SDS011;45574;41.864;12.462;2022-09-11T10:36:53;5.97;;;1.77;;
43756;SDS011;45574;41.864;12.462;2022-09-11T10:39:22;6.65;;;2.03;;
43756;SDS011;45574;41.864;12.462;2022-09-11T10:41:51;3.43;;;1.53;;
43756;SDS011;45574;41.864;12.462;2022-09-11T10:44:19;5.07;;;1.40;;
43756;SDS011;45574;41.864;12.462;2022-09-11T10:49:40;4.28;;;1.90;;
43756;SDS011;45574;41.864;12.462;2022-09-11T10:57:18;5.90;;;2.20;;
43756;SDS011;45574;41.864;12.462;2022-09-11T11:03:04;3.25;;;1.35;;
43756;SDS011;45574;41.864;12.462;2022-09-11T11:28:04;3.85;;;1.90;;
43756;SDS011;45574;41.864;12.462;2022-09-11T11:38:40;5.32;;;1.73;;
43756;SDS011;45574;41.864;12.462;2022-09-11T11:41:14;3.33;;;1.55;;
43756;SDS011;45574;41.864;12.462;2022-09-11T11:43:47;4.82;;;1.88;;
43756;SDS011;45574;41.864;12.462;2022-09-11T11:52:03;4.40;;;1.42;;
43756;SDS011;45574;41.864;12.462;2022-09-11T11:54:47;4.70;;;1.60;;
43756;SDS011;45574;41.864;12.462;2022-09-11T11:57:18;5.43;;;1.77;;
43756;SDS011;45574;41.864;12.462;2022-09-11T11:59:54;3.63;;;1.45;;
43756;SDS011;45574;41.864;12.462;2022-09-11T12:05:23;5.53;;;1.90;;
43756;SDS011;45574;41.864;12.462;2022-09-11T12:07:51;4.80;;;1.63;;
43756;SDS011;45574;41.864;12.462;2022-09-11T12:10:19;3.80;;;1.75;;
43756;SDS011;45574;41.864;12.462;2022-09-11T12:13:02;5.07;;;1.50;;
43756;SDS011;45574;41.864;12.462;2022-09-11T12:15:32;5.00;;;1.58;;
43756;SDS011;45574;41.864;12.462;2022-09-11T12:23:30;4.03;;;1.50;;
43756;SDS011;45574;41.864;12.462;2022-09-11T12:26:02;7.60;;;2.00;;
43756;SDS011;45574;41.864;12.462;2022-09-11T12:34:22;6.13;;;1.88;;
43756;SDS011;45574;41.864;12.462;2022-09-11T12:36:58;6.57;;;1.83;;
43756;SDS011;45574;41.864;12.462;2022-09-11T12:39:32;6.85;;;1.85;;
43756;SDS011;45574;41.864;12.462;2022-09-11T12:55:03;5.25;;;2.03;;
43756;SDS011;45574;41.864;12.462;2022-09-11T12:57:45;4.60;;;1.42;;
43756;SDS011;45574;41.864;12.462;2022-09-11T13:00:19;8.10;;;2.08;;
43756;SDS011;45574;41.864;12.462;2022-09-11T13:02:54;5.15;;;1.75;;
43756;SDS011;45574;41.864;12.462;2022-09-11T13:05:26;6.20;;;1.73;;
43756;SDS011;45574;41.864;12.462;2022-09-11T13:08:00;5.95;;;2.05;;
43756;SDS011;45574;41.864;12.462;2022-09-11T13:10:35;4.63;;;1.50;;
43756;SDS011;45574;41.864;12.462;2022-09-11T13:18:50;5.47;;;1.73;;
43756;SDS011;45574;41.864;12.462;2022-09-11T13:21:22;4.65;;;1.77;;
43756;SDS011;45574;41.864;12.462;2022-09-11T13:23:48;3.95;;;1.88;;
43756;SDS011;45574;41.864;12.462;2022-09-11T13:26:24;7.38;;;2.10;;
43756;SDS011;45574;41.864;12.462;2022-09-11T13:28:52;6.50;;;1.65;;
43756;SDS011;45574;41.864;12.462;2022-09-11T13:31:27;5.40;;;1.57;;
43756;SDS011;45574;41.864;12.462;2022-09-11T13:33:58;3.55;;;1.63;;
43756;SDS011;45574;41.864;12.462;2022-09-11T13:36:27;5.88;;;1.92;;
43756;SDS011;45574;41.864;12.462;2022-09-11T13:38:56;5.40;;;1.40;;
43756;SDS011;45574;41.864;12.462;2022-09-11T13:41:26;6.50;;;1.63;;
43756;SDS011;45574;41.864;12.462;2022-09-11T13:43:56;5.90;;;1.88;;
43756;SDS011;45574;41.864;12.462;2022-09-11T13:51:31;4.45;;;1.80;;
43756;SDS011;45574;41.864;12.462;2022-09-11T14:05:18;5.88;;;1.75;;
43756;SDS011;45574;41.864;12.462;2022-09-11T14:10:32;4.60;;;1.70;;
43756;SDS011;45574;41.864;12.462;2022-09-11T14:15:50;5.38;;;1.35;;
43756;SDS011;45574;41.864;12.462;2022-09-11T14:18:23;11.88;;;1.92;;
43756;SDS011;45574;41.864;12.462;2022-09-11T14:20:59;6.13;;;1.55;;
43756;SDS011;45574;41.864;12.462;2022-09-11T14:23:28;7.63;;;1.80;;
43756;SDS011;45574;41.864;12.462;2022-09-11T14:26:11;7.25;;;1.67;;
43756;SDS011;45574;41.864;12.462;2022-09-11T14:31:36;7.45;;;1.73;;
43756;SDS011;45574;41.864;12.462;2022-09-11T14:34:13;6.88;;;2.00;;
43756;SDS011;45574;41.864;12.462;2022-09-11T14:39:25;5.05;;;1.55;;
43756;SDS011;45574;41.864;12.462;2022-09-11T14:41:54;5.82;;;1.60;;
43756;SDS011;45574;41.864;12.462;2022-09-11T14:44:21;7.10;;;1.95;;
43756;SDS011;45574;41.864;12.462;2022-09-11T14:46:49;5.20;;;1.58;;
43756;SDS011;45574;41.864;12.462;2022-09-11T14:49:15;5.60;;;1.77;;
43756;SDS011;45574;41.864;12.462;2022-09-11T14:51:41;7.20;;;1.70;;
43756;SDS011;45574;41.864;12.462;2022-09-11T14:54:11;6.43;;;1.98;;
43756;SDS011;45574;41.864;12.462;2022-09-11T14:56:40;8.00;;;1.58;;
43756;SDS011;45574;41.864;12.462;2022-09-11T14:59:07;6.53;;;1.58;;
43756;SDS011;45574;41.864;12.462;2022-09-11T15:01:33;7.82;;;1.95;;
43756;SDS011;45574;41.864;12.462;2022-09-11T15:04:00;8.10;;;1.85;;
43756;SDS011;45574;41.864;12.462;2022-09-11T15:06:27;7.78;;;1.95;;
43756;SDS011;45574;41.864;12.462;2022-09-11T15:08:53;9.98;;;1.90;;
43756;SDS011;45574;41.864;12.462;2022-09-11T15:11:19;10.13;;;2.03;;
43756;SDS011;45574;41.864;12.462;2022-09-11T15:13:45;12.10;;;2.03;;
43756;SDS011;45574;41.864;12.462;2022-09-11T15:16:11;10.18;;;1.80;;
43756;SDS011;45574;41.864;12.462;2022-09-11T15:18:41;7.65;;;2.00;;
43756;SDS011;45574;41.864;12.462;2022-09-11T15:21:09;6.65;;;1.88;;
43756;SDS011;45574;41.864;12.462;2022-09-11T15:23:37;8.05;;;2.90;;
43756;SDS011;45574;41.864;12.462;2022-09-11T15:26:03;7.57;;;2.03;;
43756;SDS011;45574;41.864;12.462;2022-09-11T15:28:30;8.93;;;1.70;;
43756;SDS011;45574;41.864;12.462;2022-09-11T15:30:57;8.05;;;1.83;;
43756;SDS011;45574;41.864;12.462;2022-09-11T15:33:28;7.15;;;1.40;;
43756;SDS011;45574;41.864;12.462;2022-09-11T15:35:59;6.95;;;1.80;;
43756;SDS011;45574;41.864;12.462;2022-09-11T15:38:27;5.25;;;1.50;;
43756;SDS011;45574;41.864;12.462;2022-09-11T15:40:53;11.32;;;2.05;;
43756;SDS011;45574;41.864;12.462;2022-09-11T15:43:22;9.45;;;1.90;;
43756;SDS011;45574;41.864;12.462;2022-09-11T15:45:49;7.05;;;1.60;;
43756;SDS011;45574;41.864;12.462;2022-09-11T15:48:16;10.32;;;2.22;;
43756;SDS011;45574;41.864;12.462;2022-09-11T15:50:43;7.70;;;2.20;;
43756;SDS011;45574;41.864;12.462;2022-09-11T15:53:09;6.35;;;2.30;;
43756;SDS011;45574;41.864;12.462;2022-09-11T15:55:35;7.05;;;1.50;;
43756;SDS011;45574;41.864;12.462;2022-09-11T15:58:01;7.35;;;1.85;;
43756;SDS011;45574;41.864;12.462;2022-09-11T16:00:27;4.82;;;1.45;;
43756;SDS011;45574;41.864;12.462;2022-09-11T16:02:54;10.57;;;1.73;;
43756;SDS011;45574;41.864;12.462;2022-09-11T16:05:21;6.28;;;1.30;;
43756;SDS011;45574;41.864;12.462;2022-09-11T16:07:47;9.93;;;1.85;;
43756;SDS011;45574;41.864;12.462;2022-09-11T16:10:14;8.40;;;1.42;;
43756;SDS011;45574;41.864;12.462;2022-09-11T16:12:40;8.00;;;1.50;;
43756;SDS011;45574;41.864;12.462;2022-09-11T16:15:06;6.13;;;1.67;;
43756;SDS011;45574;41.864;12.462;2022-09-11T16:17:32;5.63;;;1.50;;
43756;SDS011;45574;41.864;12.462;2022-09-11T16:19:58;8.80;;;1.35;;
43756;SDS011;45574;41.864;12.462;2022-09-11T16:22:25;8.32;;;1.70;;
43756;SDS011;45574;41.864;12.462;2022-09-11T16:24:51;8.10;;;1.70;;
43756;SDS011;45574;41.864;12.462;2022-09-11T16:27:17;11.05;;;2.60;;
43756;SDS011;45574;41.864;12.462;2022-09-11T16:29:44;11.38;;;3.00;;
43756;SDS011;45574;41.864;12.462;2022-09-11T16:32:10;6.45;;;1.60;;
43756;SDS011;45574;41.864;12.462;2022-09-11T16:34:36;8.82;;;1.73;;
43756;SDS011;45574;41.864;12.462;2022-09-11T16:37:02;12.02;;;1.75;;
43756;SDS011;45574;41.864;12.462;2022-09-11T16:39:28;8.75;;;1.63;;
43756;SDS011;45574;41.864;12.462;2022-09-11T16:41:54;6.93;;;1.67;;
43756;SDS011;45574;41.864;12.462;2022-09-11T16:44:20;10.75;;;1.90;;
43756;SDS011;45574;41.864;12.462;2022-09-11T16:46:47;8.65;;;1.90;;
43756;SDS011;45574;41.864;12.462;2022-09-11T16:49:14;7.30;;;2.00;;
43756;SDS011;45574;41.864;12.462;2022-09-11T16:51:43;12.23;;;1.92;;
43756;SDS011;45574;41.864;12.462;2022-09-11T16:54:10;9.00;;;2.08;;
43756;SDS011;45574;41.864;12.462;2022-09-11T16:56:39;11.40;;;2.17;;
43756;SDS011;45574;41.864;12.462;2022-09-11T16:59:05;10.05;;;2.17;;
43756;SDS011;45574;41.864;12.462;2022-09-11T17:01:31;10.18;;;2.50;;
43756;SDS011;45574;41.864;12.462;2022-09-11T17:03:57;13.80;;;2.30;;
43756;SDS011;45574;41.864;12.462;2022-09-11T17:06:24;7.45;;;1.80;;
43756;SDS011;45574;41.864;12.462;2022-09-11T17:08:55;7.95;;;1.98;;
43756;SDS011;45574;41.864;12.462;2022-09-11T17:11:24;11.77;;;2.03;;
43756;SDS011;45574;41.864;12.462;2022-09-11T17:13:52;10.05;;;1.83;;
43756;SDS011;45574;41.864;12.462;2022-09-11T17:16:19;9.13;;;1.80;;
43756;SDS011;45574;41.864;12.462;2022-09-11T17:18:50;5.82;;;1.58;;
43756;SDS011;45574;41.864;12.462;2022-09-11T17:21:18;12.13;;;1.95;;
43756;SDS011;45574;41.864;12.462;2022-09-11T17:23:49;10.88;;;2.10;;
43756;SDS011;45574;41.864;12.462;2022-09-11T17:26:16;10.63;;;1.85;;
43756;SDS011;45574;41.864;12.462;2022-09-11T17:28:44;11.10;;;1.80;;
43756;SDS011;45574;41.864;12.462;2022-09-11T17:31:12;14.07;;;2.03;;
43756;SDS011;45574;41.864;12.462;2022-09-11T17:33:40;9.25;;;2.13;;
43756;SDS011;45574;41.864;12.462;2022-09-11T17:36:07;7.68;;;1.70;;
43756;SDS011;45574;41.864;12.462;2022-09-11T17:38:35;8.20;;;1.40;;
43756;SDS011;45574;41.864;12.462;2022-09-11T17:41:02;11.50;;;1.92;;
43756;SDS011;45574;41.864;12.462;2022-09-11T17:43:30;10.77;;;2.03;;
43756;SDS011;45574;41.864;12.462;2022-09-11T17:46:01;10.40;;;1.92;;
43756;SDS011;45574;41.864;12.462;2022-09-11T17:51:06;6.03;;;1.52;;
43756;SDS011;45574;41.864;12.462;2022-09-11T17:53:36;18.27;;;2.13;;
43756;SDS011;45574;41.864;12.462;2022-09-11T17:56:05;8.30;;;1.98;;
43756;SDS011;45574;41.864;12.462;2022-09-11T17:58:33;11.10;;;2.00;;
43756;SDS011;45574;41.864;12.462;2022-09-11T18:00:59;9.57;;;1.70;;
43756;SDS011;45574;41.864;12.462;2022-09-11T18:03:26;12.43;;;2.42;;
43756;SDS011;45574;41.864;12.462;2022-09-11T18:05:53;11.65;;;1.90;;
43756;SDS011;45574;41.864;12.462;2022-09-11T18:08:21;9.15;;;1.98;;
43756;SDS011;45574;41.864;12.462;2022-09-11T18:10:51;8.55;;;2.17;;
43756;SDS011;45574;41.864;12.462;2022-09-11T18:13:27;9.23;;;2.33;;
43756;SDS011;45574;41.864;12.462;2022-09-11T18:15:56;9.27;;;2.15;;